sensor_id;sensor_type;location;lat;lon;timestamp;P1;durP1;ratioP1;P2;durP2;ratioP2
71572;SDS011;59408;51.032;9.410;2023-04-24T00:01:46;5.97;;;1.10;;
71572;SDS011;59408;51.032;9.410;2023-04-24T00:04:13;3.30;;;0.90;;
71572;SDS011;59408;51.032;9.410;2023-04-24T00:06:40;4.13;;;0.95;;
71572;SDS011;59408;51.032;9.410;2023-04-24T00:09:06;3.15;;;0.80;;
71572;SDS011;59408;51.032;9.410;2023-04-24T00:11:33;4.00;;;1.00;;
71572;SDS011;59408;51.032;9.410;2023-04-24T00:13:59;3.00;;;0.90;;
71572;SDS011;59408;51.032;9.410;2023-04-24T00:16:26;3.40;;;0.88;;
71572;SDS011;59408;51.032;9.410;2023-04-24T00:18:54;3.38;;;0.90;;
71572;SDS011;59408;51.032;9.410;2023-04-24T00:21:20;3.35;;;0.90;;
71572;SDS011;59408;51.032;9.410;2023-04-24T00:23:47;3.78;;;1.10;;
71572;SDS011;59408;51.032;9.410;2023-04-24T00:26:14;3.63;;;0.90;;
71572;SDS011;59408;51.032;9.410;2023-04-24T00:28:40;2.55;;;0.77;;
71572;SDS011;59408;51.032;9.410;2023-04-24T00:31:07;3.33;;;1.00;;
71572;SDS011;59408;51.032;9.410;2023-04-24T00:33:34;3.38;;;0.90;;
71572;SDS011;59408;51.032;9.410;2023-04-24T00:36:02;3.28;;;1.00;;
71572;SDS011;59408;51.032;9.410;2023-04-24T00:38:29;4.37;;;1.10;;
71572;SDS011;59408;51.032;9.410;2023-04-24T00:40:55;6.40;;;2.10;;
71572;SDS011;59408;51.032;9.410;2023-04-24T00:43:22;4.13;;;1.20;;
71572;SDS011;59408;51.032;9.410;2023-04-24T00:45:49;4.50;;;1.10;;
71572;SDS011;59408;51.032;9.410;2023-04-24T00:48:16;5.00;;;1.30;;
71572;SDS011;59408;51.032;9.410;2023-04-24T00:50:43;4.10;;;1.45;;
71572;SDS011;59408;51.032;9.410;2023-04-24T00:53:11;4.70;;;1.57;;
71572;SDS011;59408;51.032;9.410;2023-04-24T00:55:37;5.63;;;1.42;;
71572;SDS011;59408;51.032;9.410;2023-04-24T00:58:04;5.53;;;1.38;;
71572;SDS011;59408;51.032;9.410;2023-04-24T01:00:31;5.40;;;1.67;;
71572;SDS011;59408;51.032;9.410;2023-04-24T01:02:58;4.15;;;1.73;;
71572;SDS011;59408;51.032;9.410;2023-04-24T01:05:27;4.53;;;1.63;;
71572;SDS011;59408;51.032;9.410;2023-04-24T01:07:54;4.20;;;1.42;;
71572;SDS011;59408;51.032;9.410;2023-04-24T01:10:22;5.30;;;1.70;;
71572;SDS011;59408;51.032;9.410;2023-04-24T01:12:50;3.97;;;1.52;;
71572;SDS011;59408;51.032;9.410;2023-04-24T01:15:17;5.78;;;1.77;;
71572;SDS011;59408;51.032;9.410;2023-04-24T01:17:44;6.00;;;1.63;;
71572;SDS011;59408;51.032;9.410;2023-04-24T01:20:10;4.93;;;1.60;;
71572;SDS011;59408;51.032;9.410;2023-04-24T01:22:39;5.60;;;1.60;;
71572;SDS011;59408;51.032;9.410;2023-04-24T01:25:06;4.25;;;1.45;;
71572;SDS011;59408;51.032;9.410;2023-04-24T01:27:33;4.50;;;1.58;;
71572;SDS011;59408;51.032;9.410;2023-04-24T01:29:59;4.10;;;1.33;;
71572;SDS011;59408;51.032;9.410;2023-04-24T01:32:26;5.07;;;1.77;;
71572;SDS011;59408;51.032;9.410;2023-04-24T01:34:54;4.85;;;1.60;;
71572;SDS011;59408;51.032;9.410;2023-04-24T01:37:20;5.03;;;1.48;;
71572;SDS011;59408;51.032;9.410;2023-04-24T01:39:48;4.72;;;1.42;;
71572;SDS011;59408;51.032;9.410;2023-04-24T01:42:15;5.37;;;1.30;;
71572;SDS011;59408;51.032;9.410;2023-04-24T01:44:42;4.28;;;1.48;;
71572;SDS011;59408;51.032;9.410;2023-04-24T01:47:09;4.03;;;1.30;;
71572;SDS011;59408;51.032;9.410;2023-04-24T01:49:37;4.28;;;1.40;;
71572;SDS011;59408;51.032;9.410;2023-04-24T01:52:04;3.45;;;1.08;;
71572;SDS011;59408;51.032;9.410;2023-04-24T01:54:30;3.83;;;1.30;;
71572;SDS011;59408;51.032;9.410;2023-04-24T01:56:58;3.47;;;1.40;;
71572;SDS011;59408;51.032;9.410;2023-04-24T01:59:25;3.55;;;1.23;;
71572;SDS011;59408;51.032;9.410;2023-04-24T02:01:54;3.75;;;1.35;;
71572;SDS011;59408;51.032;9.410;2023-04-24T02:04:21;4.85;;;1.20;;
71572;SDS011;59408;51.032;9.410;2023-04-24T02:06:48;2.77;;;0.90;;
71572;SDS011;59408;51.032;9.410;2023-04-24T02:09:14;4.43;;;1.20;;
71572;SDS011;59408;51.032;9.410;2023-04-24T02:11:41;4.38;;;1.25;;
71572;SDS011;59408;51.032;9.410;2023-04-24T02:14:09;3.70;;;1.15;;
71572;SDS011;59408;51.032;9.410;2023-04-24T02:16:36;4.63;;;1.23;;
71572;SDS011;59408;51.032;9.410;2023-04-24T02:19:03;4.57;;;1.10;;
71572;SDS011;59408;51.032;9.410;2023-04-24T02:21:29;3.30;;;1.20;;
71572;SDS011;59408;51.032;9.410;2023-04-24T02:23:56;4.85;;;1.27;;
71572;SDS011;59408;51.032;9.410;2023-04-24T02:26:23;4.95;;;1.42;;
71572;SDS011;59408;51.032;9.410;2023-04-24T02:28:50;5.65;;;1.55;;
71572;SDS011;59408;51.032;9.410;2023-04-24T02:31:18;3.73;;;1.30;;
71572;SDS011;59408;51.032;9.410;2023-04-24T02:33:44;5.00;;;1.35;;
71572;SDS011;59408;51.032;9.410;2023-04-24T02:36:11;4.00;;;1.40;;
71572;SDS011;59408;51.032;9.410;2023-04-24T02:38:37;5.18;;;1.55;;
71572;SDS011;59408;51.032;9.410;2023-04-24T02:41:04;5.55;;;1.70;;
71572;SDS011;59408;51.032;9.410;2023-04-24T02:43:31;4.87;;;1.50;;
71572;SDS011;59408;51.032;9.410;2023-04-24T02:45:57;4.13;;;1.48;;
71572;SDS011;59408;51.032;9.410;2023-04-24T02:48:25;7.43;;;1.40;;
71572;SDS011;59408;51.032;9.410;2023-04-24T02:50:52;5.88;;;1.52;;
71572;SDS011;59408;51.032;9.410;2023-04-24T02:53:19;5.18;;;1.63;;
71572;SDS011;59408;51.032;9.410;2023-04-24T02:55:45;5.00;;;1.70;;
71572;SDS011;59408;51.032;9.410;2023-04-24T02:58:12;4.60;;;1.65;;
71572;SDS011;59408;51.032;9.410;2023-04-24T03:00:39;5.20;;;1.70;;
71572;SDS011;59408;51.032;9.410;2023-04-24T03:03:05;4.07;;;1.77;;
71572;SDS011;59408;51.032;9.410;2023-04-24T03:05:33;4.28;;;1.60;;
71572;SDS011;59408;51.032;9.410;2023-04-24T03:08:00;4.53;;;1.60;;
71572;SDS011;59408;51.032;9.410;2023-04-24T03:10:27;5.30;;;1.40;;
71572;SDS011;59408;51.032;9.410;2023-04-24T03:12:53;4.93;;;1.80;;
71572;SDS011;59408;51.032;9.410;2023-04-24T03:15:20;4.85;;;1.70;;
71572;SDS011;59408;51.032;9.410;2023-04-24T03:17:46;5.82;;;2.13;;
71572;SDS011;59408;51.032;9.410;2023-04-24T03:20:13;5.40;;;1.83;;
71572;SDS011;59408;51.032;9.410;2023-04-24T03:22:41;7.13;;;1.90;;
71572;SDS011;59408;51.032;9.410;2023-04-24T03:25:08;5.53;;;1.80;;
71572;SDS011;59408;51.032;9.410;2023-04-24T03:27:35;4.95;;;1.85;;
71572;SDS011;59408;51.032;9.410;2023-04-24T03:30:02;6.78;;;2.00;;
71572;SDS011;59408;51.032;9.410;2023-04-24T03:32:29;5.37;;;1.60;;
71572;SDS011;59408;51.032;9.410;2023-04-24T03:34:56;4.68;;;1.75;;
71572;SDS011;59408;51.032;9.410;2023-04-24T03:37:22;4.53;;;1.77;;
71572;SDS011;59408;51.032;9.410;2023-04-24T03:39:50;5.00;;;1.77;;
71572;SDS011;59408;51.032;9.410;2023-04-24T03:42:17;5.40;;;1.70;;
71572;SDS011;59408;51.032;9.410;2023-04-24T03:44:44;4.87;;;1.80;;
71572;SDS011;59408;51.032;9.410;2023-04-24T03:47:10;4.53;;;1.55;;
71572;SDS011;59408;51.032;9.410;2023-04-24T03:49:37;4.82;;;1.98;;
71572;SDS011;59408;51.032;9.410;2023-04-24T03:52:04;5.40;;;1.50;;
71572;SDS011;59408;51.032;9.410;2023-04-24T03:54:30;6.13;;;1.60;;
71572;SDS011;59408;51.032;9.410;2023-04-24T03:56:58;4.63;;;1.20;;
71572;SDS011;59408;51.032;9.410;2023-04-24T03:59:25;3.58;;;1.10;;
71572;SDS011;59408;51.032;9.410;2023-04-24T04:01:52;3.65;;;1.10;;
71572;SDS011;59408;51.032;9.410;2023-04-24T04:04:18;4.88;;;1.20;;
71572;SDS011;59408;51.032;9.410;2023-04-24T04:06:45;4.18;;;1.23;;
71572;SDS011;59408;51.032;9.410;2023-04-24T04:09:12;3.43;;;1.10;;
71572;SDS011;59408;51.032;9.410;2023-04-24T04:11:39;3.03;;;1.00;;
71572;SDS011;59408;51.032;9.410;2023-04-24T04:14:07;5.20;;;1.30;;
71572;SDS011;59408;51.032;9.410;2023-04-24T04:16:33;3.97;;;1.40;;
71572;SDS011;59408;51.032;9.410;2023-04-24T04:19:00;5.60;;;1.50;;
71572;SDS011;59408;51.032;9.410;2023-04-24T04:21:26;5.30;;;1.30;;
71572;SDS011;59408;51.032;9.410;2023-04-24T04:23:53;5.40;;;1.60;;
71572;SDS011;59408;51.032;9.410;2023-04-24T04:26:19;4.38;;;1.65;;
71572;SDS011;59408;51.032;9.410;2023-04-24T04:28:46;4.88;;;1.42;;
71572;SDS011;59408;51.032;9.410;2023-04-24T04:31:14;4.50;;;1.58;;
71572;SDS011;59408;51.032;9.410;2023-04-24T04:33:41;4.00;;;1.50;;
71572;SDS011;59408;51.032;9.410;2023-04-24T04:36:07;4.68;;;1.80;;
71572;SDS011;59408;51.032;9.410;2023-04-24T04:38:34;5.97;;;1.80;;
71572;SDS011;59408;51.032;9.410;2023-04-24T04:41:01;4.78;;;1.80;;
71572;SDS011;59408;51.032;9.410;2023-04-24T04:43:27;4.22;;;1.63;;
71572;SDS011;59408;51.032;9.410;2023-04-24T04:45:54;4.90;;;1.70;;
71572;SDS011;59408;51.032;9.410;2023-04-24T04:48:22;4.15;;;1.60;;
71572;SDS011;59408;51.032;9.410;2023-04-24T04:50:48;5.72;;;1.80;;
71572;SDS011;59408;51.032;9.410;2023-04-24T04:53:15;4.80;;;1.80;;
71572;SDS011;59408;51.032;9.410;2023-04-24T04:55:42;4.55;;;1.90;;
71572;SDS011;59408;51.032;9.410;2023-04-24T04:58:08;6.13;;;1.70;;
71572;SDS011;59408;51.032;9.410;2023-04-24T05:00:35;6.07;;;1.77;;
71572;SDS011;59408;51.032;9.410;2023-04-24T05:03:02;4.80;;;1.90;;
71572;SDS011;59408;51.032;9.410;2023-04-24T05:05:47;5.93;;;2.10;;
71572;SDS011;59408;51.032;9.410;2023-04-24T05:08:14;4.95;;;1.88;;
71572;SDS011;59408;51.032;9.410;2023-04-24T05:10:43;5.03;;;1.83;;
71572;SDS011;59408;51.032;9.410;2023-04-24T05:13:10;6.35;;;1.90;;
71572;SDS011;59408;51.032;9.410;2023-04-24T05:15:39;6.22;;;2.22;;
71572;SDS011;59408;51.032;9.410;2023-04-24T05:18:06;5.03;;;1.80;;
71572;SDS011;59408;51.032;9.410;2023-04-24T05:20:32;7.72;;;2.20;;
71572;SDS011;59408;51.032;9.410;2023-04-24T05:23:00;6.00;;;2.10;;
71572;SDS011;59408;51.032;9.410;2023-04-24T05:25:27;5.20;;;1.65;;
71572;SDS011;59408;51.032;9.410;2023-04-24T05:27:54;6.13;;;2.17;;
71572;SDS011;59408;51.032;9.410;2023-04-24T05:30:21;4.90;;;1.73;;
71572;SDS011;59408;51.032;9.410;2023-04-24T05:32:47;4.72;;;1.70;;
71572;SDS011;59408;51.032;9.410;2023-04-24T05:35:14;5.90;;;2.00;;
71572;SDS011;59408;51.032;9.410;2023-04-24T05:37:41;7.25;;;2.08;;
71572;SDS011;59408;51.032;9.410;2023-04-24T05:40:09;5.78;;;2.40;;
71572;SDS011;59408;51.032;9.410;2023-04-24T05:42:36;5.97;;;2.10;;
71572;SDS011;59408;51.032;9.410;2023-04-24T05:45:03;5.00;;;1.83;;
71572;SDS011;59408;51.032;9.410;2023-04-24T05:47:31;5.50;;;1.90;;
71572;SDS011;59408;51.032;9.410;2023-04-24T05:49:57;4.68;;;1.90;;
71572;SDS011;59408;51.032;9.410;2023-04-24T05:52:24;5.95;;;2.20;;
71572;SDS011;59408;51.032;9.410;2023-04-24T05:54:50;5.45;;;2.10;;
71572;SDS011;59408;51.032;9.410;2023-04-24T05:57:18;4.88;;;2.03;;
71572;SDS011;59408;51.032;9.410;2023-04-24T05:59:45;5.40;;;2.17;;
71572;SDS011;59408;51.032;9.410;2023-04-24T06:02:12;5.88;;;2.22;;
71572;SDS011;59408;51.032;9.410;2023-04-24T06:04:39;5.40;;;2.25;;
71572;SDS011;59408;51.032;9.410;2023-04-24T06:07:06;5.38;;;1.98;;
71572;SDS011;59408;51.032;9.410;2023-04-24T06:09:33;5.72;;;2.40;;
71572;SDS011;59408;51.032;9.410;2023-04-24T06:11:59;6.20;;;2.27;;
71572;SDS011;59408;51.032;9.410;2023-04-24T06:14:27;5.55;;;2.13;;
71572;SDS011;59408;51.032;9.410;2023-04-24T06:16:54;4.80;;;1.98;;
71572;SDS011;59408;51.032;9.410;2023-04-24T06:19:21;5.78;;;2.38;;
71572;SDS011;59408;51.032;9.410;2023-04-24T06:21:47;8.18;;;2.25;;
71572;SDS011;59408;51.032;9.410;2023-04-24T06:24:14;6.10;;;2.80;;
71572;SDS011;59408;51.032;9.410;2023-04-24T06:26:41;5.20;;;2.17;;
71572;SDS011;59408;51.032;9.410;2023-04-24T06:29:08;5.47;;;2.53;;
71572;SDS011;59408;51.032;9.410;2023-04-24T06:31:35;6.32;;;2.50;;
71572;SDS011;59408;51.032;9.410;2023-04-24T06:34:02;6.13;;;2.30;;
71572;SDS011;59408;51.032;9.410;2023-04-24T06:36:29;5.53;;;2.53;;
71572;SDS011;59408;51.032;9.410;2023-04-24T06:38:56;6.90;;;2.65;;
71572;SDS011;59408;51.032;9.410;2023-04-24T06:41:22;6.40;;;2.38;;
71572;SDS011;59408;51.032;9.410;2023-04-24T06:43:49;5.60;;;2.25;;
71572;SDS011;59408;51.032;9.410;2023-04-24T06:46:16;5.57;;;2.63;;
71572;SDS011;59408;51.032;9.410;2023-04-24T06:48:44;5.70;;;2.53;;
71572;SDS011;59408;51.032;9.410;2023-04-24T06:51:11;6.60;;;2.73;;
71572;SDS011;59408;51.032;9.410;2023-04-24T06:53:37;8.05;;;2.88;;
71572;SDS011;59408;51.032;9.410;2023-04-24T06:56:04;7.03;;;3.30;;
71572;SDS011;59408;51.032;9.410;2023-04-24T06:58:31;6.65;;;2.60;;
71572;SDS011;59408;51.032;9.410;2023-04-24T07:00:57;7.32;;;3.20;;
71572;SDS011;59408;51.032;9.410;2023-04-24T07:03:24;6.33;;;2.90;;
71572;SDS011;59408;51.032;9.410;2023-04-24T07:05:52;6.75;;;3.35;;
71572;SDS011;59408;51.032;9.410;2023-04-24T07:08:21;7.68;;;3.22;;
71572;SDS011;59408;51.032;9.410;2023-04-24T07:10:48;7.63;;;3.47;;
71572;SDS011;59408;51.032;9.410;2023-04-24T07:13:14;6.63;;;2.97;;
71572;SDS011;59408;51.032;9.410;2023-04-24T07:15:41;7.80;;;3.40;;
71572;SDS011;59408;51.032;9.410;2023-04-24T07:18:08;7.55;;;3.00;;
71572;SDS011;59408;51.032;9.410;2023-04-24T07:20:34;7.65;;;2.90;;
71572;SDS011;59408;51.032;9.410;2023-04-24T07:23:02;8.38;;;2.92;;
71572;SDS011;59408;51.032;9.410;2023-04-24T07:25:29;6.80;;;3.10;;
71572;SDS011;59408;51.032;9.410;2023-04-24T07:27:55;6.27;;;2.80;;
71572;SDS011;59408;51.032;9.410;2023-04-24T07:30:22;7.40;;;3.13;;
71572;SDS011;59408;51.032;9.410;2023-04-24T07:32:49;8.82;;;2.72;;
71572;SDS011;59408;51.032;9.410;2023-04-24T07:35:15;8.80;;;3.00;;
71572;SDS011;59408;51.032;9.410;2023-04-24T07:37:42;8.23;;;3.10;;
71572;SDS011;59408;51.032;9.410;2023-04-24T07:40:11;7.60;;;2.80;;
71572;SDS011;59408;51.032;9.410;2023-04-24T07:42:37;5.75;;;2.80;;
71572;SDS011;59408;51.032;9.410;2023-04-24T07:45:05;7.18;;;2.50;;
71572;SDS011;59408;51.032;9.410;2023-04-24T07:47:32;6.20;;;2.92;;
71572;SDS011;59408;51.032;9.410;2023-04-24T07:49:59;6.28;;;2.92;;
71572;SDS011;59408;51.032;9.410;2023-04-24T07:52:26;7.20;;;3.00;;
71572;SDS011;59408;51.032;9.410;2023-04-24T07:54:52;7.25;;;3.03;;
71572;SDS011;59408;51.032;9.410;2023-04-24T07:57:22;6.70;;;2.70;;
71572;SDS011;59408;51.032;9.410;2023-04-24T07:59:48;6.75;;;2.92;;
71572;SDS011;59408;51.032;9.410;2023-04-24T08:02:15;6.35;;;2.67;;
71572;SDS011;59408;51.032;9.410;2023-04-24T08:04:42;8.03;;;2.77;;
71572;SDS011;59408;51.032;9.410;2023-04-24T08:07:08;6.70;;;2.60;;
71572;SDS011;59408;51.032;9.410;2023-04-24T08:09:35;7.57;;;3.03;;
71572;SDS011;59408;51.032;9.410;2023-04-24T08:12:02;6.05;;;2.80;;
71572;SDS011;59408;51.032;9.410;2023-04-24T08:14:30;7.07;;;2.95;;
71572;SDS011;59408;51.032;9.410;2023-04-24T08:16:56;6.63;;;2.87;;
71572;SDS011;59408;51.032;9.410;2023-04-24T08:19:23;7.35;;;2.80;;
71572;SDS011;59408;51.032;9.410;2023-04-24T08:21:50;5.75;;;2.80;;
71572;SDS011;59408;51.032;9.410;2023-04-24T08:24:16;7.90;;;2.60;;
71572;SDS011;59408;51.032;9.410;2023-04-24T08:26:43;6.50;;;3.00;;
71572;SDS011;59408;51.032;9.410;2023-04-24T08:29:09;6.60;;;2.70;;
71572;SDS011;59408;51.032;9.410;2023-04-24T08:31:37;6.63;;;2.90;;
71572;SDS011;59408;51.032;9.410;2023-04-24T08:34:04;6.32;;;3.10;;
71572;SDS011;59408;51.032;9.410;2023-04-24T08:36:31;6.40;;;2.80;;
71572;SDS011;59408;51.032;9.410;2023-04-24T08:39:11;7.18;;;3.00;;
71572;SDS011;59408;51.032;9.410;2023-04-24T08:41:38;6.67;;;2.87;;
71572;SDS011;59408;51.032;9.410;2023-04-24T08:44:06;7.13;;;3.08;;
71572;SDS011;59408;51.032;9.410;2023-04-24T08:46:35;6.70;;;3.20;;
71572;SDS011;59408;51.032;9.410;2023-04-24T08:49:05;7.85;;;3.35;;
71572;SDS011;59408;51.032;9.410;2023-04-24T08:51:31;8.18;;;3.30;;
71572;SDS011;59408;51.032;9.410;2023-04-24T08:53:59;6.67;;;3.10;;
71572;SDS011;59408;51.032;9.410;2023-04-24T08:56:26;6.25;;;2.83;;
71572;SDS011;59408;51.032;9.410;2023-04-24T08:58:54;7.65;;;3.60;;
71572;SDS011;59408;51.032;9.410;2023-04-24T09:01:21;6.55;;;3.13;;
71572;SDS011;59408;51.032;9.410;2023-04-24T09:03:51;7.88;;;3.35;;
71572;SDS011;59408;51.032;9.410;2023-04-24T09:06:21;8.20;;;3.60;;
71572;SDS011;59408;51.032;9.410;2023-04-24T09:08:48;8.15;;;3.63;;
71572;SDS011;59408;51.032;9.410;2023-04-24T09:11:17;7.32;;;3.58;;
71572;SDS011;59408;51.032;9.410;2023-04-24T09:13:44;7.60;;;3.50;;
71572;SDS011;59408;51.032;9.410;2023-04-24T09:16:11;11.23;;;4.00;;
71572;SDS011;59408;51.032;9.410;2023-04-24T09:18:39;7.70;;;3.40;;
71572;SDS011;59408;51.032;9.410;2023-04-24T09:21:08;7.05;;;3.47;;
71572;SDS011;59408;51.032;9.410;2023-04-24T09:23:35;8.38;;;3.40;;
71572;SDS011;59408;51.032;9.410;2023-04-24T09:26:02;8.00;;;3.47;;
71572;SDS011;59408;51.032;9.410;2023-04-24T09:28:30;7.15;;;3.17;;
71572;SDS011;59408;51.032;9.410;2023-04-24T09:31:04;7.23;;;3.30;;
71572;SDS011;59408;51.032;9.410;2023-04-24T09:33:32;6.40;;;3.17;;
71572;SDS011;59408;51.032;9.410;2023-04-24T09:35:59;8.90;;;3.53;;
71572;SDS011;59408;51.032;9.410;2023-04-24T09:38:34;7.57;;;3.63;;
71572;SDS011;59408;51.032;9.410;2023-04-24T09:41:02;7.50;;;3.47;;
71572;SDS011;59408;51.032;9.410;2023-04-24T09:43:30;7.47;;;3.40;;
71572;SDS011;59408;51.032;9.410;2023-04-24T09:45:58;7.32;;;3.60;;
71572;SDS011;59408;51.032;9.410;2023-04-24T09:48:31;7.70;;;3.35;;
71572;SDS011;59408;51.032;9.410;2023-04-24T09:51:00;7.45;;;3.38;;
71572;SDS011;59408;51.032;9.410;2023-04-24T09:53:27;6.35;;;2.90;;
71572;SDS011;59408;51.032;9.410;2023-04-24T09:55:56;6.60;;;2.73;;
71572;SDS011;59408;51.032;9.410;2023-04-24T09:58:25;7.43;;;2.78;;
71572;SDS011;59408;51.032;9.410;2023-04-24T10:00:53;6.22;;;3.13;;
71572;SDS011;59408;51.032;9.410;2023-04-24T10:03:20;7.45;;;3.10;;
71572;SDS011;59408;51.032;9.410;2023-04-24T10:05:47;7.15;;;2.90;;
71572;SDS011;59408;51.032;9.410;2023-04-24T10:08:13;5.83;;;2.70;;
71572;SDS011;59408;51.032;9.410;2023-04-24T10:10:41;5.63;;;2.50;;
71572;SDS011;59408;51.032;9.410;2023-04-24T10:13:10;5.95;;;2.60;;
71572;SDS011;59408;51.032;9.410;2023-04-24T10:15:39;5.68;;;2.50;;
71572;SDS011;59408;51.032;9.410;2023-04-24T10:18:07;6.20;;;2.50;;
71572;SDS011;59408;51.032;9.410;2023-04-24T10:20:35;5.47;;;2.30;;
71572;SDS011;59408;51.032;9.410;2023-04-24T10:23:03;5.80;;;2.13;;
71572;SDS011;59408;51.032;9.410;2023-04-24T10:25:31;4.82;;;1.88;;
71572;SDS011;59408;51.032;9.410;2023-04-24T10:27:59;5.15;;;2.00;;
71572;SDS011;59408;51.032;9.410;2023-04-24T10:30:29;5.72;;;2.20;;
71572;SDS011;59408;51.032;9.410;2023-04-24T10:32:57;6.47;;;2.40;;
71572;SDS011;59408;51.032;9.410;2023-04-24T10:35:23;5.13;;;1.90;;
71572;SDS011;59408;51.032;9.410;2023-04-24T10:37:51;5.32;;;1.70;;
71572;SDS011;59408;51.032;9.410;2023-04-24T10:40:25;5.40;;;1.85;;
71572;SDS011;59408;51.032;9.410;2023-04-24T10:42:52;4.88;;;2.17;;
71572;SDS011;59408;51.032;9.410;2023-04-24T10:45:22;4.60;;;1.90;;
71572;SDS011;59408;51.032;9.410;2023-04-24T10:47:54;5.15;;;1.88;;
71572;SDS011;59408;51.032;9.410;2023-04-24T10:50:24;5.50;;;2.10;;
71572;SDS011;59408;51.032;9.410;2023-04-24T10:52:52;7.55;;;2.10;;
71572;SDS011;59408;51.032;9.410;2023-04-24T10:58:08;6.00;;;2.27;;
71572;SDS011;59408;51.032;9.410;2023-04-24T11:00:36;6.18;;;2.78;;
71572;SDS011;59408;51.032;9.410;2023-04-24T11:03:05;5.88;;;2.38;;
71572;SDS011;59408;51.032;9.410;2023-04-24T11:05:49;5.28;;;1.95;;
71572;SDS011;59408;51.032;9.410;2023-04-24T11:08:22;6.55;;;2.40;;
71572;SDS011;59408;51.032;9.410;2023-04-24T11:10:54;5.83;;;2.00;;
71572;SDS011;59408;51.032;9.410;2023-04-24T11:13:22;6.97;;;2.40;;
71572;SDS011;59408;51.032;9.410;2023-04-24T11:18:51;5.45;;;1.90;;
71572;SDS011;59408;51.032;9.410;2023-04-24T11:21:18;4.97;;;1.80;;
71572;SDS011;59408;51.032;9.410;2023-04-24T11:23:45;4.83;;;1.80;;
71572;SDS011;59408;51.032;9.410;2023-04-24T11:26:12;4.60;;;1.70;;
71572;SDS011;59408;51.032;9.410;2023-04-24T11:28:46;4.22;;;1.30;;
71572;SDS011;59408;51.032;9.410;2023-04-24T11:34:08;3.05;;;0.70;;
71572;SDS011;59408;51.032;9.410;2023-04-24T11:36:36;2.33;;;0.60;;
71572;SDS011;59408;51.032;9.410;2023-04-24T11:39:03;2.03;;;0.57;;
71572;SDS011;59408;51.032;9.410;2023-04-24T11:41:30;1.77;;;0.57;;
71572;SDS011;59408;51.032;9.410;2023-04-24T11:43:56;2.08;;;0.60;;
71572;SDS011;59408;51.032;9.410;2023-04-24T11:46:26;1.88;;;0.50;;
71572;SDS011;59408;51.032;9.410;2023-04-24T11:48:54;2.50;;;1.00;;
71572;SDS011;59408;51.032;9.410;2023-04-24T11:51:22;1.85;;;0.57;;
71572;SDS011;59408;51.032;9.410;2023-04-24T11:53:48;2.85;;;0.73;;
71572;SDS011;59408;51.032;9.410;2023-04-24T11:56:26;1.40;;;0.50;;
71572;SDS011;59408;51.032;9.410;2023-04-24T11:58:53;2.05;;;0.50;;
71572;SDS011;59408;51.032;9.410;2023-04-24T12:01:20;1.57;;;0.50;;
71572;SDS011;59408;51.032;9.410;2023-04-24T12:03:47;1.67;;;0.50;;
71572;SDS011;59408;51.032;9.410;2023-04-24T12:06:15;5.97;;;1.63;;
71572;SDS011;59408;51.032;9.410;2023-04-24T12:08:43;1.85;;;0.63;;
71572;SDS011;59408;51.032;9.410;2023-04-24T12:11:14;2.22;;;0.60;;
71572;SDS011;59408;51.032;9.410;2023-04-24T12:13:42;2.13;;;0.50;;
71572;SDS011;59408;51.032;9.410;2023-04-24T12:16:08;2.97;;;0.80;;
71572;SDS011;59408;51.032;9.410;2023-04-24T12:18:40;3.38;;;0.95;;
71572;SDS011;59408;51.032;9.410;2023-04-24T12:21:14;3.08;;;0.95;;
71572;SDS011;59408;51.032;9.410;2023-04-24T12:23:44;2.13;;;0.80;;
71572;SDS011;59408;51.032;9.410;2023-04-24T12:26:11;1.63;;;0.60;;
71572;SDS011;59408;51.032;9.410;2023-04-24T12:28:38;2.47;;;0.80;;
71572;SDS011;59408;51.032;9.410;2023-04-24T12:31:05;2.15;;;0.80;;
71572;SDS011;59408;51.032;9.410;2023-04-24T12:33:35;3.15;;;1.02;;
71572;SDS011;59408;51.032;9.410;2023-04-24T12:36:02;1.98;;;0.70;;
71572;SDS011;59408;51.032;9.410;2023-04-24T12:38:29;2.20;;;0.60;;
71572;SDS011;59408;51.032;9.410;2023-04-24T12:41:04;1.90;;;0.60;;
71572;SDS011;59408;51.032;9.410;2023-04-24T12:43:31;2.45;;;0.80;;
71572;SDS011;59408;51.032;9.410;2023-04-24T12:45:58;3.38;;;0.80;;
71572;SDS011;59408;51.032;9.410;2023-04-24T12:48:25;2.33;;;0.75;;
71572;SDS011;59408;51.032;9.410;2023-04-24T12:50:52;2.93;;;0.90;;
71572;SDS011;59408;51.032;9.410;2023-04-24T12:53:19;3.38;;;0.98;;
71572;SDS011;59408;51.032;9.410;2023-04-24T12:55:46;3.50;;;1.10;;
71572;SDS011;59408;51.032;9.410;2023-04-24T12:58:14;3.35;;;0.90;;
71572;SDS011;59408;51.032;9.410;2023-04-24T13:00:40;2.97;;;1.02;;
71572;SDS011;59408;51.032;9.410;2023-04-24T13:03:07;2.60;;;0.90;;
71572;SDS011;59408;51.032;9.410;2023-04-24T13:05:34;3.72;;;1.00;;
71572;SDS011;59408;51.032;9.410;2023-04-24T13:08:01;4.15;;;1.35;;
71572;SDS011;59408;51.032;9.410;2023-04-24T13:10:27;3.78;;;1.30;;
71572;SDS011;59408;51.032;9.410;2023-04-24T13:12:54;3.92;;;1.10;;
71572;SDS011;59408;51.032;9.410;2023-04-24T13:15:23;4.30;;;1.27;;
71572;SDS011;59408;51.032;9.410;2023-04-24T13:17:50;4.38;;;1.38;;
71572;SDS011;59408;51.032;9.410;2023-04-24T13:20:17;3.97;;;1.58;;
71572;SDS011;59408;51.032;9.410;2023-04-24T13:22:43;4.00;;;1.27;;
71572;SDS011;59408;51.032;9.410;2023-04-24T13:25:10;4.88;;;1.80;;
71572;SDS011;59408;51.032;9.410;2023-04-24T13:27:37;4.63;;;1.80;;
71572;SDS011;59408;51.032;9.410;2023-04-24T13:30:05;4.40;;;1.80;;
71572;SDS011;59408;51.032;9.410;2023-04-24T13:32:34;4.75;;;2.00;;
71572;SDS011;59408;51.032;9.410;2023-04-24T13:35:02;4.60;;;1.85;;
71572;SDS011;59408;51.032;9.410;2023-04-24T13:37:28;4.53;;;2.10;;
71572;SDS011;59408;51.032;9.410;2023-04-24T13:39:55;4.60;;;1.87;;
71572;SDS011;59408;51.032;9.410;2023-04-24T13:42:22;4.53;;;1.90;;
71572;SDS011;59408;51.032;9.410;2023-04-24T13:44:48;5.20;;;1.73;;
71572;SDS011;59408;51.032;9.410;2023-04-24T13:47:15;5.25;;;2.03;;
71572;SDS011;59408;51.032;9.410;2023-04-24T13:49:43;6.18;;;2.45;;
71572;SDS011;59408;51.032;9.410;2023-04-24T13:52:10;5.33;;;2.00;;
71572;SDS011;59408;51.032;9.410;2023-04-24T13:54:37;5.38;;;2.20;;
71572;SDS011;59408;51.032;9.410;2023-04-24T13:57:03;5.10;;;2.30;;
71572;SDS011;59408;51.032;9.410;2023-04-24T13:59:30;4.75;;;2.00;;
71572;SDS011;59408;51.032;9.410;2023-04-24T14:01:57;5.40;;;2.03;;
71572;SDS011;59408;51.032;9.410;2023-04-24T14:04:24;4.50;;;1.97;;
71572;SDS011;59408;51.032;9.410;2023-04-24T14:06:52;5.35;;;2.38;;
71572;SDS011;59408;51.032;9.410;2023-04-24T14:09:19;5.18;;;2.40;;
71572;SDS011;59408;51.032;9.410;2023-04-24T14:11:46;5.32;;;2.30;;
71572;SDS011;59408;51.032;9.410;2023-04-24T14:14:12;5.60;;;2.78;;
71572;SDS011;59408;51.032;9.410;2023-04-24T14:16:39;7.83;;;2.10;;
71572;SDS011;59408;51.032;9.410;2023-04-24T14:19:06;5.88;;;2.33;;
71572;SDS011;59408;51.032;9.410;2023-04-24T14:21:33;5.07;;;2.30;;
71572;SDS011;59408;51.032;9.410;2023-04-24T14:24:01;6.95;;;2.50;;
71572;SDS011;59408;51.032;9.410;2023-04-24T14:26:27;6.10;;;2.30;;
71572;SDS011;59408;51.032;9.410;2023-04-24T14:28:54;4.90;;;1.97;;
71572;SDS011;59408;51.032;9.410;2023-04-24T14:31:36;7.57;;;2.47;;
71572;SDS011;59408;51.032;9.410;2023-04-24T14:34:03;5.88;;;2.53;;
71572;SDS011;59408;51.032;9.410;2023-04-24T14:36:29;4.53;;;2.10;;
71572;SDS011;59408;51.032;9.410;2023-04-24T14:38:56;6.05;;;2.20;;
71572;SDS011;59408;51.032;9.410;2023-04-24T14:41:24;5.30;;;2.17;;
71572;SDS011;59408;51.032;9.410;2023-04-24T14:43:51;6.28;;;2.38;;
71572;SDS011;59408;51.032;9.410;2023-04-24T14:46:17;5.70;;;2.45;;
71572;SDS011;59408;51.032;9.410;2023-04-24T14:48:44;6.15;;;2.40;;
71572;SDS011;59408;51.032;9.410;2023-04-24T14:51:11;5.85;;;2.30;;
71572;SDS011;59408;51.032;9.410;2023-04-24T14:53:37;6.77;;;2.20;;
71572;SDS011;59408;51.032;9.410;2023-04-24T14:56:04;8.00;;;2.47;;
71572;SDS011;59408;51.032;9.410;2023-04-24T14:58:32;6.07;;;2.25;;